Chester, Massachusetts
Current Conditions -  °F | °C
As of 10:53 AM on Tuesday 21 Oct 2014 (Local Time) from KBAF Reporting Station
Broken Clouds Broken Clouds  
Wind Chill: 53°   Ceiling: 9000
Heat Index: 53°   Visibility: 10mi
Dew Point: 44°   Wind: 6mph
Humidity: 71%   Direction: 20°NNE
Pressure: 29.94"   Gusts: NA
Location:  42.28°N, 72.98°W
Report Text: KBAF 211453Z 02005KT 10SM BKN090 12/07 A2994 RMK AO2 SLP142 60000 T01170067 58004
Loading
Personal Weather Stations






























Interactive Weather Map
Tropical Storm Tracking
New forecast layout! Learn more

10-Day Weather Forecast

Advertisements
Track Severe Weather on mobile